Terminal Aerodrome Forecast
Issued by NWS

Home | Current Version | Previous Version | Text Only | Print | Product List | Glossary On
Versions: 1 2 3 4 5 6 7 8 9 10 11 12 13 14 15 16 17 18 19 20 21 22 23 24 25
000
FTUS45 KGJT 291145
TAFEGE
TAF
KEGE 291145Z 2912/3012 00000KT P6SM FEW090 SCT120 BKN200
     FM291400 VRB03KT P6SM VCSH SCT080 BKN100
     FM291900 25008KT P6SM VCTS SCT080CB BKN150
      TEMPO 2920/2924 VRB15G25KT 3SM +TSRA SCT030 OVC045CB
     FM300000 26010KT P6SM -SHRA OVC060
     FM300600 10004KT P6SM VCSH SCT070 BKN090
      AMD LTD TO CLD VIS AND WIND TIL 291300=

USA.gov is the U.S. government's official web portal to all federal, state and local government web resources and services.